地図

経路データ

SID SEASON NUMBER BASIN SUBBASIN NAME ISO_TIME NATURE LAT LON WMO_WIND WMO_PRES WMO_AGENCY TRACK_TYPE DIST2LAND LANDFALL IFLAG USA_AGENCY USA_ATCF_ID USA_LAT USA_LON USA_RECORD USA_STATUS USA_WIND USA_PRES USA_SSHS USA_R34_NE USA_R34_SE USA_R34_SW USA_R34_NW USA_R50_NE USA_R50_SE USA_R50_SW USA_R50_NW USA_R64_NE USA_R64_SE USA_R64_SW USA_R64_NW USA_POCI USA_ROCI USA_RMW USA_EYE TOKYO_LAT TOKYO_LON TOKYO_GRADE TOKYO_WIND TOKYO_PRES TOKYO_R50_DIR TOKYO_R50_LONG TOKYO_R50_SHORT TOKYO_R30_DIR TOKYO_R30_LONG TOKYO_R30_SHORT TOKYO_LAND CMA_LAT CMA_LON CMA_CAT CMA_WIND CMA_PRES HKO_LAT HKO_LON HKO_CAT HKO_WIND HKO_PRES NEWDELHI_LAT NEWDELHI_LON NEWDELHI_GRADE NEWDELHI_WIND NEWDELHI_PRES NEWDELHI_CI NEWDELHI_DP NEWDELHI_POCI REUNION_LAT REUNION_LON REUNION_TYPE REUNION_WIND REUNION_PRES REUNION_TNUM REUNION_CI REUNION_RMW REUNION_R34_NE REUNION_R34_SE REUNION_R34_SW REUNION_R34_NW REUNION_R50_NE REUNION_R50_SE REUNION_R50_SW REUNION_R50_NW REUNION_R64_NE REUNION_R64_SE REUNION_R64_SW REUNION_R64_NW BOM_LAT BOM_LON BOM_TYPE BOM_WIND BOM_PRES BOM_TNUM BOM_CI BOM_RMW BOM_R34_NE BOM_R34_SE BOM_R34_SW BOM_R34_NW BOM_R50_NE BOM_R50_SE BOM_R50_SW BOM_R50_NW BOM_R64_NE BOM_R64_SE BOM_R64_SW BOM_R64_NW BOM_ROCI BOM_POCI BOM_EYE BOM_POS_METHOD BOM_PRES_METHOD NADI_LAT NADI_LON NADI_CAT NADI_WIND NADI_PRES WELLINGTON_LAT WELLINGTON_LON WELLINGTON_WIND WELLINGTON_PRES DS824_LAT DS824_LON DS824_STAGE DS824_WIND DS824_PRES TD9636_LAT TD9636_LON TD9636_STAGE TD9636_WIND TD9636_PRES TD9635_LAT TD9635_LON TD9635_WIND TD9635_PRES TD9635_ROCI NEUMANN_LAT NEUMANN_LON NEUMANN_CLASS NEUMANN_WIND NEUMANN_PRES MLC_LAT MLC_LON MLC_CLASS MLC_WIND MLC_PRES USA_GUST BOM_GUST BOM_GUST_PER REUNION_GUST REUNION_GUST_PER USA_SEAHGT USA_SEARAD_NE USA_SEARAD_SE USA_SEARAD_SW USA_SEARAD_NW STORM_SPEED STORM_DIR
1870052S20109 1870 7 SI WA NOT_NAMED 1870-02-21 06:00:00 NR -20.3000 109.100 main 531 531 _____O________ -1 -20.3000 109.100 99 9.90000 7 227
1870052S20109 1870 7 SI WA NOT_NAMED 1870-02-21 09:00:00 NR -20.5373 108.832 main 548 544 _____P________ -1 -20.5373 108.832 99 7 227
1870052S20109 1870 7 SI WA NOT_NAMED 1870-02-21 12:00:00 NR -20.7721 108.566 main 554 554 _____P________ -1 -20.7721 108.566 99 7 227
1870052S20109 1870 7 SI WA NOT_NAMED 1870-02-21 15:00:00 NR -21.0019 108.306 main 575 575 _____P________ -1 -21.0019 108.306 99 5 228
1870052S20109 1870 7 SI WA NOT_NAMED 1870-02-21 18:00:00 NR -21.0996 108.183 main 581 581 _____P____O___ -1 -21.2245 108.054 99 -20.6000 108.700 7 4 229
1870052S20109 1870 7 SI WA NOT_NAMED 1870-02-21 21:00:00 NR -21.2945 107.942 main 605 602 _____P____P___ -1 -21.4379 107.814 99 -21.0079 108.197 7 7 229
1870052S20109 1870 7 SI WA NOT_NAMED 1870-02-22 00:00:00 NR -21.5335 107.647 main 630 627 _____P____P___ -1 -21.6397 107.590 99 -21.3919 107.723 7 7 229
1870052S20109 1870 7 SI WA NOT_NAMED 1870-02-22 03:00:00 NR -21.7788 107.349 main 654 652 _____P____P___ -1 -21.8278 107.384 99 -21.7299 107.313 7 7 227
1870052S20109 1870 7 SI WA NOT_NAMED 1870-02-22 06:00:00 NR -22.0000 107.100 main 671 671 _____O____O___ -1 -22.0000 107.200 99 9.90000 -22.0000 107.000 7 6 225
1870052S20109 1870 7 SI WA NOT_NAMED 1870-02-22 09:00:00 NR -22.1720 106.923 main 689 689 _____P____P___ -1 -22.1551 107.040 99 -22.1890 106.805 7 4 222
1870052S20109 1870 7 SI WA NOT_NAMED 1870-02-22 12:00:00 NR -22.3060 106.801 main 699 698 _____P____P___ -1 -22.2954 106.902 99 -22.3167 106.701 7 3 218
1870052S20109 1870 7 SI WA NOT_NAMED 1870-02-22 15:00:00 NR -22.4175 106.713 main 708 708 _____P____P___ -1 -22.4240 106.780 99 -22.4111 106.646 7 3 216
1870052S20109 1870 7 SI WA NOT_NAMED 1870-02-22 18:00:00 NR -22.5220 106.637 main 718 718 _____P____O___ -1 -22.5439 106.673 99 -22.5000 106.600 7 3 215
1870052S20109 1870 7 SI WA NOT_NAMED 1870-02-22 21:00:00 NR -22.6417 106.540 main 728 724 _____P____P___ -1 -22.6585 106.575 99 -22.6250 106.504 7 3 216
1870052S20109 1870 7 SI WA NOT_NAMED 1870-02-23 00:00:00 NR -22.7603 106.445 main 734 731 _____P____P___ -1 -22.7706 106.483 99 -22.7499 106.407 7 3 217
1870052S20109 1870 7 SI WA NOT_NAMED 1870-02-23 03:00:00 NR -22.8792 106.350 main 741 739 _____P____P___ -1 -22.8834 106.393 99 -22.8750 106.307 7 3 217
1870052S20109 1870 7 SI WA NOT_NAMED 1870-02-23 06:00:00 NR -23.0000 106.250 main 739 739 _____O____O___ -1 -23.0000 106.300 99 9.90000 -23.0000 106.200 7 3 219
1870052S20109 1870 7 SI WA NOT_NAMED 1870-02-23 09:00:00 NR -23.1259 106.130 main 756 754 _____P____P___ -1 -23.1309 106.182 99 -23.1210 106.078 7 3 222
1870052S20109 1870 7 SI WA NOT_NAMED 1870-02-23 12:00:00 NR -23.2531 106.006 main 762 762 _____P____P___ -1 -23.2638 106.063 99 -23.2425 105.950 7 3 221
1870052S20109 1870 7 SI WA NOT_NAMED 1870-02-23 15:00:00 NR -23.3832 105.883 main 770 770 _____P____P___ -1 -23.3985 105.944 99 -23.3678 105.822 7 3 220
1870052S20109 1870 7 SI WA NOT_NAMED 1870-02-23 18:00:00 NR -23.5175 105.764 main 778 778 _____P____O___ -1 -23.5350 105.827 99 -23.5000 105.700 7 3 218
1870052S20109 1870 7 SI WA NOT_NAMED 1870-02-23 21:00:00 NR -23.6581 105.651 main 785 785 _____P____P___ -1 -23.6735 105.713 99 -23.6428 105.589 7 4 215
1870052S20109 1870 7 SI WA NOT_NAMED 1870-02-24 00:00:00 NR -23.8031 105.544 main 804 802 _____P____P___ -1 -23.8138 105.603 99 -23.7925 105.485 7 4 213
1870052S20109 1870 7 SI WA NOT_NAMED 1870-02-24 03:00:00 NR -23.9509 105.444 main 812 811 _____P____P___ -1 -23.9560 105.499 99 -23.9459 105.389 7 3 211
1870052S20109 1870 7 SI WA NOT_NAMED 1870-02-24 06:00:00 NR -24.1000 105.350 main 811 811 _____O____O___ -1 -24.1000 105.400 99 9.90000 -24.1000 105.300 7 3 209
1870052S20109 1870 7 SI WA NOT_NAMED 1870-02-24 09:00:00 NR -24.2506 105.260 main 820 820 _____P____P___ -1 -24.2472 105.311 99 -24.2541 105.210 7 3 207
1870052S20109 1870 7 SI WA NOT_NAMED 1870-02-24 12:00:00 NR -24.4021 105.178 main 829 829 _____P____P___ -1 -24.3967 105.228 99 -24.4075 105.128 7 3 205
1870052S20109 1870 7 SI WA NOT_NAMED 1870-02-24 15:00:00 NR -24.5525 105.104 main 839 837 _____P____P___ -1 -24.5478 105.151 99 -24.5572 105.057 7 3 203
1870052S20109 1870 7 SI WA NOT_NAMED 1870-02-24 18:00:00 NR -24.6999 105.039 main 847 845 _____P____O___ -1 -24.6998 105.077 99 -24.7000 105.000 7 3 200
1870052S20109 1870 7 SI WA NOT_NAMED 1870-02-24 21:00:00 NR -24.8399 104.988 main 845 840 _____P____P___ -1 -24.8518 105.006 99 -24.8281 104.969 7 3 198
1870052S20109 1870 7 SI WA NOT_NAMED 1870-02-25 00:00:00 NR -24.9765 104.944 main 850 848 _____P____P___ -1 -25.0030 104.937 99 -24.9499 104.950 7 3 195
1870052S20109 1870 7 SI WA NOT_NAMED 1870-02-25 03:00:00 NR -25.1122 104.900 main 848 847 _____P____P___ -1 -25.1527 104.869 99 -25.0718 104.931 7 3 198
1870052S20109 1870 7 SI WA NOT_NAMED 1870-02-25 06:00:00 NR -25.2500 104.850 main 847 845 _____O____O___ -1 -25.3000 104.800 99 9.90000 -25.2000 104.900 7 3 201
1870052S20109 1870 7 SI WA NOT_NAMED 1870-02-25 09:00:00 NR -25.3906 104.777 main 854 854 _____P____P___ -1 -25.4383 104.719 99 -25.3428 104.835 7 3 206
1870052S20109 1870 7 SI WA NOT_NAMED 1870-02-25 12:00:00 NR -25.5333 104.698 main 862 861 _____P____P___ -1 -25.5741 104.638 99 -25.4925 104.758 7 3 206
1870052S20109 1870 7 SI WA NOT_NAMED 1870-02-25 15:00:00 NR -25.6772 104.616 main 870 869 _____P____P___ -1 -25.7084 104.557 99 -25.6460 104.676 7 3 206
1870052S20109 1870 7 SI WA NOT_NAMED 1870-02-25 18:00:00 NR -25.8213 104.539 main 879 878 _____P____O___ -1 -25.8425 104.477 99 -25.8000 104.600 7 3 204
1870052S20109 1870 7 SI WA NOT_NAMED 1870-02-25 21:00:00 NR -25.9638 104.472 main 878 878 _____P____P___ -1 -25.9776 104.401 99 -25.9500 104.543 7 3 201
1870052S20109 1870 7 SI WA NOT_NAMED 1870-02-26 00:00:00 NR -26.1074 104.410 main 887 886 _____P____P___ -1 -26.1147 104.328 99 -26.1000 104.492 7 3 200
1870052S20109 1870 7 SI WA NOT_NAMED 1870-02-26 03:00:00 NR -26.2526 104.353 main 886 886 _____P____P___ -1 -26.2551 104.261 99 -26.2500 104.446 7 3 199
1870052S20109 1870 7 SI WA NOT_NAMED 1870-02-26 06:00:00 NR -26.4000 104.300 main 895 895 _____O____O___ -1 -26.4000 104.200 99 9.90000 -26.4000 104.400 7 3 197
1870052S20109 1870 7 SI WA NOT_NAMED 1870-02-26 09:00:00 NR -26.5524 104.245 main 905 905 _____P____P___ -1 -26.5589 104.145 99 -26.5459 104.346 7 3 197
1870052S20109 1870 7 SI WA NOT_NAMED 1870-02-26 12:00:00 NR -26.7076 104.194 main 905 905 _____P____P___ -1 -26.7227 104.095 99 -26.6925 104.293 7 3 196
1870052S20109 1870 7 SI WA NOT_NAMED 1870-02-26 15:00:00 NR -26.8662 104.147 main 916 916 _____P____P___ -1 -26.8896 104.051 99 -26.8428 104.243 7 3 194
1870052S20109 1870 7 SI WA NOT_NAMED 1870-02-26 18:00:00 NR -27.0287 104.106 main 916 916 _____P____O___ -1 -27.0574 104.012 99 -27.0000 104.200 7 3 191
1870052S20109 1870 7 SI WA NOT_NAMED 1870-02-26 21:00:00 NR -27.2001 104.073 main 917 917 _____P____P___ -1 -27.2243 103.978 99 -27.1759 104.168 7 4 190
1870052S20109 1870 7 SI WA NOT_NAMED 1870-02-27 00:00:00 NR -27.3729 104.045 main 929 929 _____P____P___ -1 -27.3884 103.948 99 -27.3575 104.142 7 3 185
1870052S20109 1870 7 SI WA NOT_NAMED 1870-02-27 03:00:00 NR -27.5415 104.022 main 930 930 _____P____P___ -1 -27.5476 103.922 99 -27.5353 104.121 7 3 186
1870052S20109 1870 7 SI WA NOT_NAMED 1870-02-27 06:00:00 NR -27.7000 104.000 main 933 933 _____O____O___ -1 -27.7000 103.900 99 9.90000 -27.7000 104.100 7 3 187
1870052S20109 1870 7 SI WA NOT_NAMED 1870-02-27 09:00:00 NR -27.8276 103.976 main 934 934 _____P____P___ -1 -27.8198 103.876 99 -27.8353 104.075 7 2 189
1870052S20109 1870 7 SI WA NOT_NAMED 1870-02-27 12:00:00 NR -27.9442 103.953 main 936 936 _____P____P___ -1 -27.9309 103.856 99 -27.9575 104.050 7 2 191
1870052S20109 1870 7 SI WA NOT_NAMED 1870-02-27 15:00:00 NR -28.0572 103.933 main 949 949 _____P____P___ -1 -28.0385 103.840 99 -28.0759 104.025 7 2 191
1870052S20109 1870 7 SI WA NOT_NAMED 1870-02-27 18:00:00 NR -28.1737 103.914 main 951 951 _____P____O___ -1 -28.1475 103.827 99 -28.2000 104.000 7 2 191
1870052S20109 1870 7 SI WA NOT_NAMED 1870-02-27 21:00:00 NR -28.3000 103.896 main 954 954 _____P____P___ -1 -28.2631 103.817 99 -28.3369 103.975 7 3 188
1870052S20109 1870 7 SI WA NOT_NAMED 1870-02-28 00:00:00 NR -28.4309 103.870 main 956 956 _____P____P___ -1 -28.3903 103.810 99 -28.4850 103.950 7 3 186
1870052S20109 1870 7 SI WA NOT_NAMED 1870-02-28 03:00:00 NR -28.5697 103.844 main 970 970 _____P____P___ -1 -28.5343 103.804 99 -28.6406 103.925 7 3 186
1870052S20109 1870 7 SI WA NOT_NAMED 1870-02-28 06:00:00 NR -28.7200 103.820 main 973 973 _____O____O___ -1 -28.7000 103.800 99 9.90000 -28.8000 103.900 7 3 187
1870052S20109 1870 7 SI WA NOT_NAMED 1870-02-28 09:00:00 NR -28.8912 103.797 main 978 978 _____P________ -1 -28.8912 103.797 99 7 4 0
1870052S20109 1870 7 SI WA NOT_NAMED 1870-02-28 12:00:00 NR -29.1059 103.796 main 984 984 _____P________ -1 -29.1059 103.796 99 7 5 0
1870052S20109 1870 7 SI WA NOT_NAMED 1870-02-28 15:00:00 NR -29.3408 103.795 main 991 991 _____P________ -1 -29.3408 103.795 99 7 5 0
1870052S20109 1870 7 SI WA NOT_NAMED 1870-02-28 18:00:00 NR -29.5925 103.795 main 1001 1001 _____P________ -1 -29.5925 103.795 99 5 177
1870052S20109 1870 7 SI WA NOT_NAMED 1870-02-28 21:00:00 NR -29.8577 103.796 main 1013 1013 _____P________ -1 -29.8577 103.796 99 5 177
1870052S20109 1870 7 SI WA NOT_NAMED 1870-03-01 00:00:00 NR -30.1329 103.797 main 1021 1021 _____P________ -1 -30.1329 103.797 99 6 0
1870052S20109 1870 7 SI WA NOT_NAMED 1870-03-01 03:00:00 NR -30.4148 103.798 main 1034 1034 _____P________ -1 -30.4148 103.798 99 6 0
1870052S20109 1870 7 SI WA NOT_NAMED 1870-03-01 06:00:00 NR -30.7000 103.800 main 1046 _____O________ -1 -30.7000 103.800 99 9.90000 6 179

IBTrACS Databaseについて

本データベースは、米国NOAAが公開する1842年以降の世界の熱帯低気圧のベストトラックデータアーカイブInternational Best Track Archive for Climate Stewardship (IBTrACS)を、ウェブで閲覧しやすい形式に変換したものです。

最終更新日:2021-10-21